Terminal Aerodrome Forecast
Issued by NWS

Home | Current Version | Previous Version | Graphics & Text | Print | Product List | Glossary On
Versions: 1 2 3 4 5 6 7 8 9 10 11 12 13 14 15 16 17 18 19 20
000
FTUS43 KICT 180654 AAA
TAFSLN
TAF AMD
KSLN 180654Z 1807/1906 13006KT P6SM OVC009
      TEMPO 1807/1810 5SM -TSRA BKN015CB
     FM181200 15007KT 5SM BR VCTS OVC008CB
     FM181400 17009KT P6SM OVC025=

USA.gov is the U.S. government's official web portal to all federal, state and local government web resources and services.